createdAt,value
2019-04-10T00:01:53.067Z,80.00
2019-04-10T00:04:23.103Z,79.90
2019-04-10T00:06:54.243Z,79.80
2019-04-10T00:09:27.648Z,79.80
2019-04-10T00:11:57.276Z,79.90
2019-04-10T00:14:26.838Z,80.00
2019-04-10T00:16:56.516Z,80.30
2019-04-10T00:19:26.715Z,80.30
2019-04-10T00:21:56.529Z,80.40
2019-04-10T00:24:26.090Z,80.50
2019-04-10T00:26:56.406Z,80.60
2019-04-10T00:29:26.539Z,80.60
2019-04-10T00:31:56.303Z,80.90
2019-04-10T00:34:25.919Z,81.00
2019-04-10T00:36:55.625Z,80.90
2019-04-10T00:39:25.237Z,81.30
2019-04-10T00:41:54.942Z,81.40
2019-04-10T00:44:25.748Z,81.60
2019-04-10T00:46:56.608Z,81.80
2019-04-10T00:49:26.523Z,82.00
2019-04-10T00:51:56.083Z,82.20
2019-04-10T00:54:25.800Z,82.30
2019-04-10T00:56:55.476Z,82.30
2019-04-10T00:59:26.139Z,82.30
2019-04-10T01:01:56.283Z,82.50
2019-04-10T01:04:26.603Z,82.60
2019-04-10T01:06:56.713Z,82.70
2019-04-10T01:09:25.997Z,82.80
2019-04-10T01:11:55.624Z,84.00
2019-04-10T01:14:25.528Z,84.50
2019-04-10T01:16:55.748Z,84.40
2019-04-10T01:19:25.932Z,84.50
2019-04-10T01:21:56.893Z,84.40
2019-04-10T01:24:27.870Z,84.60
2019-04-10T01:26:57.615Z,84.80
2019-04-10T01:29:27.312Z,84.90
2019-04-10T01:31:56.919Z,85.00
2019-04-10T01:34:27.432Z,85.20
2019-04-10T01:36:57.105Z,85.50
2019-04-10T01:39:28.595Z,85.20
2019-04-10T01:41:58.504Z,85.30
2019-04-10T01:44:29.239Z,85.10
2019-04-10T01:46:59.124Z,85.30
2019-04-10T01:49:27.979Z,85.30
2019-04-10T01:51:57.496Z,85.10
2019-04-10T01:54:27.073Z,84.90
2019-04-10T01:56:57.665Z,85.00
2019-04-10T01:59:29.886Z,85.10
2019-04-10T02:02:07.261Z,85.40
2019-04-10T02:04:36.906Z,85.40
2019-04-10T02:07:07.587Z,85.10
2019-04-10T02:09:37.336Z,85.40
2019-04-10T02:12:06.963Z,85.40
2019-04-10T02:14:36.502Z,85.40
2019-04-10T02:17:06.446Z,85.40
2019-04-10T02:19:36.976Z,85.40
2019-04-10T02:22:07.000Z,85.40
2019-04-10T02:24:35.722Z,86.10
2019-04-10T02:27:05.787Z,85.40
2019-04-10T02:29:35.735Z,85.30
2019-04-10T02:32:05.821Z,85.40
2019-04-10T02:34:34.627Z,85.40
2019-04-10T02:37:04.288Z,85.70
2019-04-10T02:39:39.873Z,85.60
2019-04-10T02:42:06.125Z,85.80
2019-04-10T02:44:37.595Z,85.90
2019-04-10T02:47:08.143Z,86.50
2019-04-10T02:49:38.613Z,86.30
2019-04-10T02:52:08.796Z,86.30
2019-04-10T02:54:39.726Z,86.40
2019-04-10T02:57:09.641Z,86.40
2019-04-10T02:59:39.757Z,86.60
2019-04-10T03:02:09.833Z,86.50
2019-04-10T03:04:38.656Z,86.50
2019-04-10T03:07:09.487Z,86.60
2019-04-10T03:09:53.668Z,86.60
2019-04-10T03:12:12.351Z,86.90
2019-04-10T03:14:45.225Z,86.80
2019-04-10T03:17:13.463Z,86.90
2019-04-10T03:19:43.440Z,87.10
2019-04-10T03:22:12.456Z,87.10
2019-04-10T03:24:42.059Z,87.10
2019-04-10T03:27:12.323Z,87.00
2019-04-10T03:29:42.289Z,87.10
2019-04-10T03:32:34.533Z,87.20
2019-04-10T03:35:04.734Z,87.50
2019-04-10T03:37:34.274Z,87.30
2019-04-10T03:40:04.946Z,87.40
2019-04-10T03:42:35.847Z,87.40
2019-04-10T03:45:07.556Z,87.40
2019-04-10T03:47:37.687Z,87.40
2019-04-10T03:50:08.738Z,87.40
2019-04-10T03:52:38.433Z,87.30
2019-04-10T03:55:08.441Z,87.30
2019-04-10T03:57:40.024Z,87.30
2019-04-10T04:00:10.200Z,87.10
2019-04-10T04:02:40.073Z,87.10
2019-04-10T04:05:11.180Z,87.00
2019-04-10T04:07:40.979Z,86.80
2019-04-10T04:10:12.697Z,86.90
2019-04-10T04:12:42.622Z,86.80
2019-04-10T04:15:13.576Z,86.90
2019-04-10T04:17:44.202Z,87.00
2019-04-10T04:20:14.834Z,87.10
2019-04-10T04:22:45.989Z,87.10
2019-04-10T04:25:15.677Z,87.30
2019-04-10T04:27:46.256Z,87.50
2019-04-10T04:30:16.995Z,87.50
2019-04-10T04:32:46.667Z,87.50
2019-04-10T04:35:16.229Z,87.50
2019-04-10T04:37:46.314Z,87.50
2019-04-10T04:40:16.164Z,87.40
2019-04-10T04:42:47.074Z,87.60
2019-04-10T04:45:17.347Z,87.60
2019-04-10T04:47:48.077Z,87.50
2019-04-10T04:50:17.895Z,87.50
2019-04-10T04:52:47.479Z,87.50
2019-04-10T04:55:17.671Z,87.20
2019-04-10T04:57:47.355Z,87.20
2019-04-10T05:00:17.405Z,87.10
2019-04-10T05:02:47.092Z,87.10
2019-04-10T05:05:16.643Z,87.20
2019-04-10T05:07:57.207Z,87.20
2019-04-10T05:10:17.469Z,87.00
2019-04-10T05:12:47.054Z,87.00
2019-04-10T05:15:16.749Z,86.80
2019-04-10T05:17:47.089Z,87.30
2019-04-10T05:20:17.047Z,87.40
2019-04-10T05:22:45.978Z,87.40
2019-04-10T05:25:15.508Z,87.70
2019-04-10T05:27:45.057Z,87.50
2019-04-10T05:30:14.752Z,87.50
2019-04-10T05:32:44.304Z,87.60
2019-04-10T05:35:15.103Z,87.30
2019-04-10T05:37:45.715Z,87.00
2019-04-10T05:40:15.543Z,87.00
2019-04-10T05:42:45.162Z,87.00
2019-04-10T05:45:14.902Z,87.00
2019-04-10T05:47:44.509Z,86.60
2019-04-10T05:50:15.025Z,86.50
2019-04-10T05:52:45.092Z,86.20
2019-04-10T05:55:13.993Z,85.90
2019-04-10T05:57:43.431Z,85.90
2019-04-10T06:00:15.074Z,85.80
2019-04-10T06:02:44.714Z,85.90
2019-04-10T06:05:14.008Z,85.30
2019-04-10T06:07:43.648Z,84.70
2019-04-10T06:10:13.435Z,84.50
2019-04-10T06:12:43.053Z,84.40
2019-04-10T06:15:12.936Z,84.10
2019-04-10T06:17:42.866Z,83.90
2019-04-10T06:20:14.061Z,83.50
2019-04-10T06:22:45.472Z,83.20
2019-04-10T06:25:16.066Z,82.60
2019-04-10T06:27:46.134Z,81.10
2019-04-10T06:30:17.509Z,80.50
2019-04-10T06:32:47.359Z,80.50
2019-04-10T06:35:17.086Z,80.20
2019-04-10T06:37:46.720Z,79.70
2019-04-10T06:40:20.618Z,79.70
2019-04-10T06:42:52.235Z,79.30
2019-04-10T06:45:19.841Z,79.40
2019-04-10T06:47:49.502Z,79.40
2019-04-10T06:50:19.504Z,79.60
2019-04-10T06:52:49.292Z,78.70
2019-04-10T06:55:19.003Z,78.50
2019-04-10T06:57:55.015Z,78.50
2019-04-10T07:00:21.279Z,78.40
2019-04-10T07:02:51.177Z,78.50
2019-04-10T07:05:21.889Z,77.90
2019-04-10T07:07:56.649Z,76.30
2019-04-10T07:10:30.806Z,74.90
2019-04-10T07:12:55.329Z,73.90
2019-04-10T07:15:25.659Z,73.90
2019-04-10T07:17:55.494Z,73.70
2019-04-10T07:20:26.094Z,73.10
2019-04-10T07:22:56.977Z,72.30
2019-04-10T07:25:27.870Z,72.60
2019-04-10T07:27:58.387Z,71.60
2019-04-10T07:30:28.326Z,71.20
2019-04-10T07:32:59.020Z,70.70
2019-04-10T07:35:33.722Z,70.90
2019-04-10T07:38:00.055Z,70.00
2019-04-10T07:40:33.021Z,70.50
2019-04-10T07:43:00.871Z,69.40
2019-04-10T07:45:31.743Z,70.00
2019-04-10T07:48:02.419Z,70.40
2019-04-10T07:50:32.054Z,70.60
2019-04-10T07:53:01.975Z,70.40
2019-04-10T07:55:33.019Z,69.70
2019-04-10T07:58:02.807Z,68.60
2019-04-10T08:00:32.610Z,68.00
2019-04-10T08:03:02.333Z,67.50
2019-04-10T08:05:33.063Z,66.30
2019-04-10T08:08:03.098Z,63.10
2019-04-10T08:10:32.761Z,62.60
2019-04-10T08:13:02.472Z,63.00
2019-04-10T08:15:32.068Z,62.40
2019-04-10T08:18:02.583Z,63.00
2019-04-10T08:20:32.724Z,61.50
2019-04-10T08:23:02.331Z,59.60
2019-04-10T08:25:33.283Z,59.70
2019-04-10T08:28:03.103Z,58.60
2019-04-10T08:30:32.640Z,58.10
2019-04-10T08:33:03.236Z,58.40
2019-04-10T08:35:33.633Z,58.50
2019-04-10T08:38:03.403Z,57.00
2019-04-10T08:40:34.291Z,57.10
2019-04-10T08:43:04.048Z,55.90
2019-04-10T08:45:44.286Z,56.80
2019-04-10T08:48:05.737Z,55.90
2019-04-10T08:50:36.384Z,54.80
2019-04-10T08:53:06.200Z,54.80
2019-04-10T08:55:35.768Z,54.30
2019-04-10T08:58:06.184Z,54.50
2019-04-10T09:00:36.498Z,54.80
2019-04-10T09:03:06.675Z,53.40
2019-04-10T09:05:37.462Z,54.00
2019-04-10T09:08:07.217Z,53.60
2019-04-10T09:10:36.804Z,53.90
2019-04-10T09:13:06.442Z,53.60
2019-04-10T09:15:36.165Z,51.90
2019-04-10T09:18:06.017Z,52.20
2019-04-10T09:20:35.120Z,50.90
2019-04-10T09:23:18.644Z,51.60
2019-04-10T09:25:37.183Z,50.40
2019-04-10T09:28:07.137Z,49.10
2019-04-10T09:30:37.974Z,49.60
2019-04-10T09:33:16.915Z,50.50
2019-04-10T09:35:38.754Z,50.70
2019-04-10T09:38:08.474Z,50.90
2019-04-10T09:40:38.389Z,50.90
2019-04-10T09:43:09.233Z,50.10
2019-04-10T09:45:39.293Z,49.90
2019-04-10T09:48:08.991Z,50.70
2019-04-10T09:50:39.592Z,49.80
2019-04-10T09:53:09.324Z,49.70
2019-04-10T09:55:38.972Z,49.50
2019-04-10T09:58:08.614Z,50.10
2019-04-10T10:00:38.409Z,50.50
2019-04-10T10:03:07.680Z,51.20
2019-04-10T10:05:37.287Z,51.40
2019-04-10T10:08:08.061Z,51.00
2019-04-10T10:10:38.841Z,51.50
2019-04-10T10:13:09.730Z,50.20
2019-04-10T10:15:38.446Z,50.80
2019-04-10T10:18:08.881Z,51.70
2019-04-10T10:20:39.639Z,50.40
2019-04-10T10:23:09.618Z,51.00
2019-04-10T10:25:39.472Z,51.30
2019-04-10T10:28:09.102Z,50.00
2019-04-10T10:30:39.689Z,50.20
2019-04-10T10:33:09.866Z,51.00
2019-04-10T10:35:39.715Z,51.20
2019-04-10T10:38:08.604Z,50.50
2019-04-10T10:40:39.341Z,49.70
2019-04-10T10:43:09.999Z,49.70
2019-04-10T10:45:39.820Z,50.00
2019-04-10T10:48:11.503Z,48.80
2019-04-10T10:50:41.610Z,48.60
2019-04-10T10:53:12.234Z,48.90
2019-04-10T10:55:42.097Z,49.20
2019-04-10T10:58:11.707Z,48.90
2019-04-10T11:00:41.128Z,50.00
2019-04-10T11:03:10.911Z,50.80
2019-04-10T11:05:40.608Z,53.30
2019-04-10T11:08:11.147Z,57.40
2019-04-10T11:10:41.399Z,59.10
2019-04-10T11:13:11.166Z,60.00
2019-04-10T11:15:43.676Z,61.50
2019-04-10T11:18:12.111Z,62.20
2019-04-10T11:20:41.877Z,62.50
2019-04-10T11:23:12.063Z,65.00
2019-04-10T11:25:41.826Z,64.00
2019-04-10T11:28:12.549Z,65.40
2019-04-10T11:30:42.943Z,65.90
2019-04-10T11:33:12.587Z,66.00
2019-04-10T11:35:43.792Z,64.10
2019-04-10T11:38:15.700Z,62.70
2019-04-10T11:40:45.741Z,61.70
2019-04-10T11:43:16.907Z,62.50
2019-04-10T11:45:52.425Z,60.30
2019-04-10T11:48:20.054Z,57.20
2019-04-10T11:50:51.023Z,58.50
2019-04-10T11:53:21.565Z,59.70
2019-04-10T11:55:53.080Z,58.70
2019-04-10T11:58:21.782Z,58.50
2019-04-10T12:00:54.872Z,58.60
2019-04-10T12:03:24.597Z,59.00
2019-04-10T12:05:55.595Z,59.30
2019-04-10T12:13:28.662Z,59.90
2019-04-10T12:15:58.925Z,61.10
2019-04-10T12:18:28.773Z,59.80
2019-04-10T12:20:59.727Z,61.20
2019-04-10T12:23:30.552Z,59.40
2019-04-10T12:26:01.178Z,57.70
2019-04-10T12:28:31.012Z,59.40
2019-04-10T12:31:01.676Z,61.00
2019-04-10T12:33:31.753Z,61.90
2019-04-10T12:36:00.523Z,62.10
2019-04-10T12:38:30.022Z,61.80
2019-04-10T12:40:59.658Z,61.20
2019-04-10T12:43:29.314Z,61.00
2019-04-10T12:45:58.822Z,62.10
2019-04-10T12:48:28.565Z,62.30
2019-04-10T12:50:58.217Z,62.70
2019-04-10T12:53:27.938Z,62.60
2019-04-10T12:55:57.865Z,62.20
2019-04-10T12:58:28.860Z,60.50
2019-04-10T13:00:58.771Z,60.00
2019-04-10T13:03:29.423Z,60.30
2019-04-10T13:05:59.779Z,59.80
2019-04-10T13:08:48.329Z,60.90
2019-04-10T13:11:01.119Z,59.80
2019-04-10T13:13:31.136Z,59.50
2019-04-10T13:16:01.519Z,62.30
2019-04-10T13:18:32.149Z,59.50
2019-04-10T13:21:02.934Z,60.60
2019-04-10T13:23:33.075Z,61.20
2019-04-10T13:26:05.460Z,62.20
2019-04-10T13:28:34.018Z,62.30
2019-04-10T13:31:03.759Z,61.50
2019-04-10T13:33:33.460Z,65.40
2019-04-10T13:36:03.144Z,63.30
2019-04-10T13:38:34.448Z,64.90
2019-04-10T13:41:04.131Z,65.70
2019-04-10T13:43:33.932Z,66.80
2019-04-10T13:46:04.617Z,67.20
2019-04-10T13:48:35.506Z,67.10
2019-04-10T13:51:05.378Z,67.20
2019-04-10T13:53:34.306Z,66.70
2019-04-10T13:56:04.478Z,67.30
2019-04-10T13:58:35.103Z,68.10
2019-04-10T14:01:07.498Z,65.20
2019-04-10T14:03:37.082Z,65.20
2019-04-10T14:06:07.884Z,65.60
2019-04-10T14:08:58.459Z,64.60
2019-04-10T14:11:09.038Z,64.30
2019-04-10T14:13:38.041Z,62.30
2019-04-10T14:16:08.560Z,61.70
2019-04-10T14:18:39.049Z,64.40
2019-04-10T14:21:13.695Z,67.40
2019-04-10T14:23:40.198Z,71.40
2019-04-10T14:26:39.164Z,72.30
2019-04-10T14:28:59.682Z,74.10
2019-04-10T14:31:32.105Z,75.80
2019-04-10T14:34:03.387Z,78.40
2019-04-10T14:36:33.104Z,79.90
2019-04-10T14:39:11.892Z,79.20
2019-04-10T14:41:36.039Z,78.10
2019-04-10T14:44:06.069Z,77.90
2019-04-10T14:46:36.046Z,76.70
2019-04-10T14:49:04.946Z,76.40
2019-04-10T14:51:34.719Z,74.60
2019-04-10T14:54:04.456Z,72.80
2019-04-10T14:56:34.462Z,72.20
2019-04-10T14:59:04.141Z,70.30
2019-04-10T15:01:34.030Z,69.50
2019-04-10T15:04:04.640Z,67.80
2019-04-10T15:06:34.420Z,66.70
2019-04-10T15:09:06.219Z,66.40
2019-04-10T15:11:35.849Z,64.50
2019-04-10T15:14:05.633Z,62.40
2019-04-10T15:16:35.135Z,59.00
2019-04-10T15:19:04.839Z,57.30
2019-04-10T15:21:34.693Z,55.00
2019-04-10T15:24:05.503Z,53.80
2019-04-10T15:26:36.185Z,56.00
2019-04-10T15:29:05.972Z,54.90
2019-04-10T15:31:35.435Z,54.50
2019-04-10T15:34:06.158Z,56.00
2019-04-10T15:36:35.939Z,56.60
2019-04-10T15:39:06.580Z,56.40
2019-04-10T15:41:36.164Z,55.40
2019-04-10T15:44:05.860Z,56.00
2019-04-10T15:46:35.544Z,55.90
2019-04-10T15:49:05.114Z,57.20
2019-04-10T15:51:34.815Z,57.00
2019-04-10T15:54:05.509Z,57.20
2019-04-10T15:56:36.148Z,57.80
2019-04-10T15:59:06.026Z,57.30
2019-04-10T16:01:37.138Z,57.60
2019-04-10T16:04:08.106Z,57.80
2019-04-10T16:06:38.390Z,56.40
2019-04-10T16:09:09.243Z,51.60
2019-04-10T16:11:41.642Z,50.20
2019-04-10T16:14:20.771Z,51.00
2019-04-10T16:16:44.432Z,51.10
2019-04-10T16:19:15.549Z,51.30
2019-04-10T16:21:45.806Z,52.40
2019-04-10T16:24:17.438Z,52.50
2019-04-10T16:26:47.500Z,52.70
2019-04-10T16:29:18.181Z,52.90
2019-04-10T16:31:48.222Z,53.40
2019-04-10T16:34:17.895Z,53.50
2019-04-10T16:36:48.527Z,53.60
2019-04-10T16:39:19.904Z,53.50
2019-04-10T16:41:50.341Z,53.80
2019-04-10T16:44:21.258Z,53.40
2019-04-10T16:46:50.990Z,53.60
2019-04-10T16:49:20.574Z,53.60
2019-04-10T16:51:50.471Z,54.00
2019-04-10T16:54:20.475Z,53.60
2019-04-10T16:56:50.467Z,53.60
2019-04-10T16:59:20.046Z,53.50
2019-04-10T17:01:49.742Z,53.80
2019-04-10T17:04:19.447Z,53.60
2019-04-10T17:06:49.014Z,53.70
2019-04-10T17:09:20.731Z,53.90
2019-04-10T17:11:51.405Z,54.10
2019-04-10T17:14:22.138Z,54.20
2019-04-10T17:16:51.853Z,54.10
2019-04-10T17:19:23.618Z,54.00
2019-04-10T17:21:54.270Z,54.30
2019-04-10T17:24:24.995Z,54.90
2019-04-10T17:26:55.134Z,55.50
2019-04-10T17:29:25.144Z,55.40
2019-04-10T17:31:57.037Z,55.50
2019-04-10T17:34:27.073Z,57.70
2019-04-10T17:36:57.072Z,60.00
2019-04-10T17:39:27.195Z,61.60
2019-04-10T17:41:57.792Z,62.30
2019-04-10T17:44:27.657Z,63.10
2019-04-10T17:46:57.621Z,64.10
2019-04-10T17:49:27.686Z,64.80
2019-04-10T17:51:59.844Z,65.80
2019-04-10T17:54:29.733Z,66.20
2019-04-10T17:57:00.303Z,66.30
2019-04-10T17:59:30.274Z,66.20
2019-04-10T18:02:01.581Z,66.80
2019-04-10T18:04:31.941Z,66.30
2019-04-10T18:07:01.770Z,65.00
2019-04-10T18:09:32.723Z,63.00
2019-04-10T18:12:03.830Z,62.70
2019-04-10T18:14:36.806Z,63.30
2019-04-10T18:17:04.788Z,63.70
2019-04-10T18:19:34.425Z,64.00
2019-04-10T18:22:05.310Z,64.30
2019-04-10T18:24:35.887Z,63.90
2019-04-10T18:27:05.841Z,63.30
2019-04-10T18:29:35.491Z,62.70
2019-04-10T18:32:05.515Z,62.80
2019-04-10T18:34:35.479Z,62.70
2019-04-10T18:37:05.412Z,62.30
2019-04-10T18:39:34.703Z,62.30
2019-04-10T18:42:05.528Z,61.90
2019-04-10T18:44:35.308Z,61.90
2019-04-10T18:47:05.051Z,61.70
2019-04-10T18:49:35.550Z,61.60
2019-04-10T18:52:05.536Z,61.30
2019-04-10T18:54:35.997Z,61.40
2019-04-10T18:57:05.730Z,61.40
2019-04-10T18:59:37.099Z,61.20
2019-04-10T19:02:25.506Z,61.00
2019-04-10T19:05:09.619Z,60.90
2019-04-10T19:07:40.572Z,61.60
2019-04-10T19:10:11.491Z,64.40
2019-04-10T19:12:41.928Z,65.00
2019-04-10T19:15:12.810Z,65.60
2019-04-10T19:17:43.338Z,66.10
2019-04-10T19:20:13.558Z,65.90
2019-04-10T19:22:44.560Z,66.40
2019-04-10T19:25:14.601Z,66.10
2019-04-10T19:27:44.511Z,66.40
2019-04-10T19:30:19.124Z,66.40
2019-04-10T19:32:49.821Z,66.50
2019-04-10T19:35:19.997Z,67.00
2019-04-10T19:37:51.305Z,67.80
2019-04-10T19:40:21.457Z,67.30
2019-04-10T19:42:51.491Z,66.20
2019-04-10T19:45:21.596Z,65.70
2019-04-10T19:47:50.646Z,66.40
2019-04-10T19:50:21.353Z,67.20
2019-04-10T19:52:51.042Z,67.60
2019-04-10T19:55:21.870Z,67.60
2019-04-10T19:57:51.723Z,67.60
2019-04-10T20:00:24.171Z,67.50
2019-04-10T20:02:53.960Z,67.10
2019-04-10T20:05:23.679Z,67.00
2019-04-10T20:07:53.430Z,67.50
2019-04-10T20:10:23.444Z,68.10
2019-04-10T20:12:53.093Z,69.00
2019-04-10T20:15:22.865Z,69.50
2019-04-10T20:17:52.543Z,71.20
2019-04-10T20:20:23.460Z,71.60
2019-04-10T20:22:53.580Z,71.50
2019-04-10T20:25:24.077Z,71.40
2019-04-10T20:27:53.898Z,71.70
2019-04-10T20:30:25.819Z,72.40
2019-04-10T20:32:56.471Z,72.30
2019-04-10T20:35:26.561Z,71.30
2019-04-10T20:37:56.386Z,71.40
2019-04-10T20:40:26.045Z,71.50
2019-04-10T20:42:56.335Z,72.20
2019-04-10T20:45:27.404Z,72.10
2019-04-10T20:47:58.137Z,71.40
2019-04-10T20:50:28.032Z,71.40
2019-04-10T20:52:57.838Z,71.70
2019-04-10T20:55:28.503Z,72.10
2019-04-10T20:57:58.151Z,71.90
2019-04-10T21:00:30.152Z,71.70
2019-04-10T21:03:00.695Z,69.50
2019-04-10T21:05:31.605Z,68.90
2019-04-10T21:08:02.132Z,68.00
2019-04-10T21:10:31.805Z,70.10
2019-04-10T21:13:01.390Z,72.40
2019-04-10T21:15:30.965Z,72.70
2019-04-10T21:18:00.617Z,72.70
2019-04-10T21:20:30.194Z,73.00
2019-04-10T21:22:59.844Z,73.60
2019-04-10T21:25:29.413Z,74.50
2019-04-10T21:28:00.219Z,76.10
2019-04-10T21:30:48.773Z,77.40
2019-04-10T21:33:20.478Z,77.50
2019-04-10T21:35:50.127Z,78.70
2019-04-10T21:38:19.802Z,80.00
2019-04-10T21:40:49.520Z,80.30
2019-04-10T21:43:20.251Z,80.80
2019-04-10T21:45:50.315Z,81.10
2019-04-10T21:48:19.972Z,81.50
2019-04-10T21:50:49.731Z,82.10
2019-04-10T21:53:19.948Z,82.30
2019-04-10T21:55:49.618Z,83.10
2019-04-10T21:58:19.914Z,83.40
2019-04-10T22:00:51.290Z,83.20
2019-04-10T22:03:22.107Z,83.40
2019-04-10T22:05:53.700Z,83.60
2019-04-10T22:08:37.169Z,83.60
2019-04-10T22:11:07.117Z,83.50
2019-04-10T22:13:37.916Z,83.70
2019-04-10T22:16:09.451Z,84.70
2019-04-10T22:18:39.406Z,83.80
2019-04-10T22:21:08.805Z,83.60
2019-04-10T22:23:38.445Z,84.30
2019-04-10T22:26:09.523Z,84.50
2019-04-10T22:28:39.380Z,84.40
2019-04-10T22:31:09.611Z,85.20
2019-04-10T22:33:40.440Z,86.40
2019-04-10T22:36:10.764Z,87.00
2019-04-10T22:38:40.595Z,87.40
2019-04-10T22:41:20.649Z,87.60
2019-04-10T22:43:42.803Z,87.90
2019-04-10T22:46:13.109Z,88.20
2019-04-10T22:48:43.691Z,88.90
2019-04-10T22:51:13.416Z,89.20
2019-04-10T22:53:43.734Z,89.50
2019-04-10T22:56:15.002Z,90.00
2019-04-10T22:58:45.621Z,90.00
2019-04-10T23:01:15.503Z,90.10
2019-04-10T23:03:45.360Z,90.10
2019-04-10T23:06:15.325Z,90.20
2019-04-10T23:08:45.951Z,90.30
2019-04-10T23:11:15.523Z,90.20
2019-04-10T23:13:45.877Z,90.20
2019-04-10T23:16:17.204Z,90.50
2019-04-10T23:18:47.785Z,90.40
2019-04-10T23:21:18.575Z,90.50
2019-04-10T23:23:48.944Z,90.80
2019-04-10T23:26:20.691Z,91.30
2019-04-10T23:28:51.737Z,91.10
2019-04-10T23:31:21.604Z,91.10
2019-04-10T23:33:50.511Z,90.80
2019-04-10T23:36:20.262Z,91.20
2019-04-10T23:38:49.996Z,91.10
2019-04-10T23:41:21.203Z,91.20
2019-04-10T23:43:51.540Z,91.20
2019-04-10T23:46:22.208Z,91.30
2019-04-10T23:48:52.927Z,91.50
2019-04-10T23:51:23.112Z,91.60
2019-04-10T23:53:53.102Z,91.50
2019-04-10T23:56:23.707Z,91.50
2019-04-10T23:58:54.135Z,91.70
